Hon James L Oberstar — WL3108 — position and weather

sailwx.info

Track history (hours):
 
Tides and Currents Weather Stations Pressure Air Temp Water Temp Dewpoint Dewpoint Depression Visibility Wind Speed Wind Dir Waves Ship Positions

Hon James L Oberstar

Owner: THE INTERLAKE STEAMSHIP COMPANY, Middleburg Heights, OH. More information available from US FCC via Universal Licensing System and Coast Guard Vessel Documentation Center.

Last reported at 2017-Dec-11 16:00 UTC. Time now 2017-Dec-14 17:15 UTC.
Position N 44°00' W 082°36'.

Length 240 m; draft 8.2 m.

Type: Cargo ship. MMSI: 366904890.

Wind from 270 at 10 knots

Barometer 1015.4 mb
Air temperature -6.3 ° C
Water temperature -0.0 ° C

Date/timePositionNaut miles runAvg speedWind from/ knotsBaromVisibWave heightAir tempDewpointWater temp
2017-Dec-11 16:00N 44°00' W 082°36'1312.8 270 / 101015.4 -6.3 -0.0
2017-Dec-11 15:00N 43°48' W 082°30'1212.0 260 / 141016.0 -6.7 -0.0
2017-Dec-11 14:00N 43°36' W 082°30'1212.0 270 / 121016.0 -7.5 -0.0
2017-Dec-11 13:00N 43°24' W 082°30'1312.8 290 / 161017.1 -8.1 -0.0
2017-Dec-11 12:00N 43°12' W 082°24'1212.0 310 / 181016.4 -7.7 -0.0
2017-Dec-11 11:00N 43°00' W 082°24'1312.8 300 / 91017.4 -7.6 -0.0
2017-Dec-11 10:00N 42°48' W 082°30'6 6.0 350 / 101017.4 -6.6 -0.0
2017-Dec-11 09:00N 42°42' W 082°30'1312.8 320 / 101016.7 -5.0 -0.0
2017-Dec-11 08:00N 42°30' W 082°36'1110.7 350 / 111016.2 -3.3 -0.0
2017-Dec-11 07:00N 42°24' W 082°48'1110.7 330 / 121015.2 -2.8 -0.0
2017-Dec-11 06:00N 42°18' W 083°00'4 4.4 330 / 91016.2 -2.4 -0.0
2017-Dec-11 05:00N 42°18' W 083°06'4 4.4 310 / 101015.9 -2.1 -0.0
2017-Dec-11 04:00N 42°18' W 083°12'0 0.0 330 / 101015.2 -2.1 -0.0
2017-Dec-11 03:00N 42°18' W 083°12'0 0.0 300 / 81015.2 -2.0 -0.0
2017-Dec-11 02:00N 42°18' W 083°12'0 0.0 250 / 81014.8 -2.1 -0.0
2017-Dec-11 01:00N 42°18' W 083°12'0 0.0 320 / 51014.8 -1.9 -0.0
2017-Dec-11 00:00N 42°18' W 083°12'0 0.0 220 / 61014.5 -2.2 -0.0
2017-Dec-10 23:00N 42°18' W 083°12'0 0.0 200 / 81014.2 -2.7 -0.0
2017-Dec-10 22:00N 42°18' W 083°12'0 0.0 230 / 91013.8 -2.8 -0.0
2017-Dec-10 21:00N 42°18' W 083°12'0 0.0 220 / 81013.1 -3.1 -0.0
2017-Dec-10 20:00N 42°18' W 083°12'0 0.0 240 / 61012.8 -3.5 -0.0
2017-Dec-10 19:00N 42°18' W 083°12'4 4.4 240 / 101013.1 -3.8 -0.0
2017-Dec-10 18:00N 42°18' W 083°06'0 0.0 250 / 121013.5 -3.9 -0.0
2017-Dec-10 17:00N 42°18' W 083°06'1110.7 250 / 211013.8 -4.1 -0.0
2017-Dec-10 16:00N 42°24' W 082°54'1110.7 220 / 211013.8 -3.6 -0.0
2017-Dec-10 15:00N 42°30' W 082°42'7 7.5 240 / 221013.1 -2.7 -0.0
2017-Dec-10 14:00N 42°36' W 082°36'7 7.4 240 / 201013.3 -2.5 -0.0
2017-Dec-10 13:00N 42°42' W 082°30'1212.0 230 / 141013.7 -3.2 -0.0
2017-Dec-10 12:00N 42°54' W 082°30'7 7.4 220 / 111013.3 -4.1 -0.0
2017-Dec-10 11:00N 43°00' W 082°24'1212.0 240 / 131012.7 -4.6 -0.0
2017-Dec-10 10:00N 43°12' W 082°24'1212.0 260 / 201012.7 -4.2 -0.0
2017-Dec-10 09:00N 43°24' W 082°24'1212.0 250 / 181012.0 -4.3 -0.0
2017-Dec-10 08:00N 43°36' W 082°24'1312.8 310 / 171012.0 -3.6 -0.0
2017-Dec-10 07:00N 43°48' W 082°30'1212.0 230 / 221011.6 -3.2 -0.0
2017-Dec-10 06:00N 44°00' W 082°30'1312.8 310 / 191012.0 -3.1 -0.0
2017-Dec-10 05:00N 44°12' W 082°36'1312.7 300 / 211011.6 -3.5 -0.0
2017-Dec-10 04:00N 44°24' W 082°42'2512.7 310 / 251011.6 -3.4 -0.0
2017-Dec-10 02:00N 44°48' W 082°54'1312.7 310 / 211011.3 -3.0 -0.0
2017-Dec-10 01:00N 45°00' W 083°00'1312.7 300 / 181011.3 -3.0 -0.0
2017-Dec-10 00:00N 45°12' W 083°06'1514.7 340 / 181011.3 -2.5 -0.0
2017-Dec-09 23:00N 45°24' W 083°18'415.3 330 / 161011.3 -3.3 -0.0
2017-Dec-09 22:43N 45°27' W 083°23'312.8
2017-Dec-09 22:30N 45°29' W 083°25'612.8
2017-Dec-09 22:00N 45°34' W 083°30'2121.0
2017-Dec-09 22:00N 45°36' W 083°30'510.3 320 / 141011.3 -3.9 -0.0
2017-Dec-09 21:30N 45°39' W 083°36'510.4
2017-Dec-09 21:00N 45°42' W 083°42'1312.7 340 / 161011.0 -4.2 -0.0
2017-Dec-09 20:00N 45°54' W 083°48'1514.6 1010.6 -5.3 -0.0
2017-Dec-09 19:00N 46°06' W 084°00'7 7.3 020 / 41011.0 -6.5 -0.0
2017-Dec-09 18:00N 46°12' W 084°06'7 7.3 350 / 41011.3 -7.6 -0.0
2017-Dec-09 17:00N 46°18' W 084°12'7 7.3 050 / 51011.3 -8.3 -0.0
2017-Dec-09 16:00N 46°24' W 084°18'6 6.0 100 / 91011.3 -9.0 -0.0
2017-Dec-09 15:00N 46°30' W 084°18'4 4.1 050 / 51011.3 -9.8 -0.0
2017-Dec-09 14:00N 46°30' W 084°24'7 7.3 050 / 81010.8 -9.7 -0.0
2017-Dec-09 13:00N 46°24' W 084°30'1514.6 090 / 121010.2 -9.2 -0.0
2017-Dec-09 12:00N 46°36' W 084°42'1514.6 140 / 201009.1 -7.2 -0.0
2017-Dec-09 11:00N 46°48' W 084°54'1010.2 140 / 151009.1 -6.1 -0.0
2017-Dec-09 10:00N 46°54' W 085°06'1413.7 160 / 181008.1 -5.7 -0.0
2017-Dec-09 09:00N 46°48' W 085°24'1616.4 160 / 151008.1 -6.3 -0.0
2017-Dec-09 08:00N 46°48' W 085°48'1212.3 160 / 121008.1 -6.3 -0.0
2017-Dec-09 07:00N 46°48' W 086°06'1413.7 180 / 91007.5 -5.9 -0.0
2017-Dec-09 06:00N 46°42' W 086°24'1212.3 180 / 81007.1 -5.3 -0.0
2017-Dec-09 05:00N 46°42' W 086°42'1413.7 170 / 101007.1 -5.4 -0.0
2017-Dec-09 04:00N 46°36' W 087°00'1212.4 160 / 101007.1 -6.1 -0.0
2017-Dec-09 03:00N 46°36' W 087°18'4 4.1 170 / 141007.5 -6.6 -0.0
2017-Dec-09 02:00N 46°36' W 087°24'0 0.0 020 / 11007.5 -6.1 -0.0
2017-Dec-09 01:00N 46°36' W 087°24'0 0.0 320 / 21007.8 -6.3 -0.0
2017-Dec-09 00:00N 46°36' W 087°24'0 0.0 210 / 11008.1 -6.4 -0.0
2017-Dec-08 23:00N 46°36' W 087°24'0 0.0 240 / 11008.1 -6.3 -0.0
2017-Dec-08 22:00N 46°36' W 087°24'0 0.0 240 / 11008.1 -6.7 -0.0
2017-Dec-08 21:00N 46°36' W 087°24'0 0.0 110 / 11008.1 -6.0 -0.0
2017-Dec-08 20:00N 46°36' W 087°24'0 0.0 300 / 11008.8 -6.5 -0.0
2017-Dec-08 19:00N 46°36' W 087°24'0 0.0 300 / 51008.8 -7.1 -0.0
2017-Dec-08 18:00N 46°36' W 087°24'0 0.0 240 / 51009.1 -6.8 -0.0
2017-Dec-08 17:00N 46°36' W 087°24'0 0.0 240 / 61009.1 -6.9 -0.0
2017-Dec-08 16:00N 46°36' W 087°24'0 0.0 310 / 61009.5 -6.4 -0.0
2017-Dec-08 15:00N 46°36' W 087°24'0 0.0 290 / 41008.8 -6.7 -0.0
2017-Dec-08 14:00N 46°36' W 087°24'0 0.0 270 / 61008.8 -6.4 -0.0
2017-Dec-08 13:00N 46°36' W 087°24'0 0.0 240 / 51008.1 -6.1 -0.0
2017-Dec-08 12:00N 46°36' W 087°24'0 0.0 030 / 51007.8 -6.0 -0.0
2017-Dec-08 11:00N 46°36' W 087°24'0 0.0 230 / 31007.1 -6.0 -0.0
2017-Dec-08 10:00N 46°36' W 087°24'0 0.0 240 / 41007.1 -6.0 -0.0
2017-Dec-08 09:00N 46°36' W 087°24'0 0.0 230 / 51006.8 -6.3 -0.0
2017-Dec-08 08:00N 46°36' W 087°24'4 4.1 240 / 161006.8 -6.2 -0.0
2017-Dec-08 07:00N 46°36' W 087°18'1212.0 270 / 251006.4 -5.4 -0.0
2017-Dec-08 06:00N 46°48' W 087°18'8 8.2 280 / 311006.4 -4.3 -0.0
2017-Dec-08 05:00N 46°48' W 087°06'1212.3 270 / 311006.4 -4.1 -0.0
2017-Dec-08 04:00N 46°48' W 086°48'1212.3 270 / 291006.8 -4.1 -0.0
2017-Dec-08 03:00N 46°48' W 086°30'8 8.2 250 / 271007.5 -3.4 -0.0
2017-Dec-08 02:00N 46°48' W 086°18'1212.3 260 / 301008.1 -3.3 -0.0
2017-Dec-08 01:00N 46°48' W 086°00'8 8.2 230 / 341008.1 -4.7 -0.0
2017-Dec-08 00:00N 46°48' W 085°48'1212.3 250 / 281009.1 -3.6 -0.0
2017-Dec-07 23:00N 46°48' W 085°30'8 8.2 230 / 321008.8 -4.7 -0.0
2017-Dec-07 22:00N 46°48' W 085°18'1212.3 220 / 261009.1 -5.5 -0.0
2017-Dec-07 21:00N 46°48' W 085°00'1514.6 280 / 251009.8 -3.5 -0.0
2017-Dec-07 20:00N 46°36' W 084°48'1010.2 300 / 201010.2 -4.4 -0.0
2017-Dec-07 19:00N 46°30' W 084°36'8 8.3 280 / 291009.8 -4.8 -0.0
2017-Dec-07 18:00N 46°30' W 084°24'0 0.0 300 / 181010.2 -3.7 -0.0
2017-Dec-07 17:00N 46°30' W 084°24'4 4.1 090 / 11012.5 -5.5 -0.0
2017-Dec-07 16:00N 46°30' W 084°18'0 0.0 090 / 11012.3 -6.6 -0.0
2017-Dec-07 15:00N 46°30' W 084°18'0 0.0 010 / 31012.0 -7.7 -0.0
2017-Dec-07 14:00N 46°30' W 084°18'7 7.4 330 / 21012.0 -8.0 -0.0
2017-Dec-07 13:00N 46°23' W 084°14'1261.4
2017-Dec-07 13:00N 46°24' W 084°12'7 7.3 040 / 61011.6 -8.1 -0.0
2017-Dec-07 12:00N 46°18' W 084°06'7 9.7 1011.3 -7.1 -0.0
2017-Dec-07 11:14N 46°11' W 084°05'1 6.3
2017-Dec-07 11:00N 46°12' W 084°06'47628.5 350 / 131010.6 -6.6 -0.0
2017-Dec-07 10:59N 46°09' W 084°02'610.6
2017-Dec-07 10:26N 46°03' W 083°58'510.4
2017-Dec-07 10:00N 46°00' W 083°54'111.1 300 / 181010.3 -4.6 -0.0
2017-Dec-07 09:52N 45°59' W 083°53'412.0
2017-Dec-07 09:30N 45°55' W 083°56'713.1
2017-Dec-07 09:00N 45°51' W 084°04'3195.7
2017-Dec-07 09:00N 45°54' W 084°06'817.3 300 / 191010.6 -3.0 -0.0
2017-Dec-07 08:30N 45°47' W 084°00'612.2
2017-Dec-07 08:00N 45°42' W 083°54'019.2
2017-Dec-07 08:00N 45°42' W 083°54'612.0 310 / 231009.9 -2.4 -0.0
2017-Dec-07 07:30N 45°38' W 083°48'611.7
2017-Dec-07 07:00N 45°34' W 083°42'2151.3
2017-Dec-07 07:00N 45°36' W 083°42'815.6 260 / 311008.6 -2.4 -0.0
2017-Dec-07 06:30N 45°30' W 083°36'612.3
2017-Dec-07 06:00N 45°25' W 083°30'176.2
2017-Dec-07 06:00N 45°24' W 083°30'510.7 250 / 281008.9 -3.6 -0.0
2017-Dec-07 05:31N 45°21' W 083°24'510.0
2017-Dec-07 05:00N 45°18' W 083°18'1514.7 250 / 251009.9 -4.1 -0.0
2017-Dec-07 04:00N 45°06' W 083°06'1212.0 270 / 301009.6 -3.6 -0.0
2017-Dec-07 03:00N 44°54' W 083°06'1212.0 270 / 241010.3 -3.3 -0.0
2017-Dec-07 02:00N 44°42' W 083°06'1312.7 290 / 201010.6 -3.2 -0.0
2017-Dec-07 01:00N 44°30' W 083°12'1212.0 260 / 221011.0 -2.8 -0.0
2017-Dec-07 00:00N 44°18' W 083°12'1414.2 250 / 291009.9 -2.8 -0.0
2017-Dec-06 23:00N 44°12' W 082°54'1010.5 260 / 361009.3 -2.2 -0.0
2017-Dec-06 22:00N 44°06' W 082°42'7 7.4 240 / 341008.3 -1.2 -0.0
2017-Dec-06 21:00N 44°00' W 082°36'1312.8 270 / 271007.9 -0.8 -0.0
2017-Dec-06 20:00N 43°48' W 082°30'1818.0 270 / 211007.9 0.8 -0.0
2017-Dec-06 19:00N 43°30' W 082°30'1312.8 260 / 291007.6 1.9 -0.0
2017-Dec-06 18:00N 43°18' W 082°24'1212.0 260 / 291007.9 1.6 -0.0
2017-Dec-06 17:00N 43°06' W 082°24'6 6.0 250 / 221009.9 1.3 -0.0
2017-Dec-06 16:00N 43°00' W 082°24'1312.8 240 / 221011.3 0.7 -0.0
2017-Dec-06 15:00N 42°48' W 082°30'1212.0 220 / 171011.6 -0.6 -0.0
2017-Dec-06 14:00N 42°36' W 082°30'7 7.5 220 / 191012.3 -0.8 -0.0
2017-Dec-06 13:00N 42°30' W 082°36'1110.7 210 / 291012.5 -0.6 -0.0
2017-Dec-06 12:00N 42°24' W 082°48'1110.7 220 / 281012.5 -1.3 -0.0
2017-Dec-06 11:00N 42°18' W 083°00'4 4.4 190 / 121012.8 -2.3 -0.0
2017-Dec-06 10:00N 42°18' W 083°06'4 4.4 240 / 111013.1 -2.7 -0.0
2017-Dec-06 09:00N 42°18' W 083°12'0 0.0 200 / 81013.1 -1.4 -0.0
2017-Dec-06 08:00N 42°18' W 083°12'0 0.0 220 / 81013.8 -1.8 -0.0
2017-Dec-06 07:00N 42°18' W 083°12'0 0.0 190 / 81013.5 -1.5 -0.0
2017-Dec-06 06:00N 42°18' W 083°12'0 0.0 230 / 91013.5 -1.3 -0.0
2017-Dec-06 05:00N 42°18' W 083°12'0 0.0 240 / 81013.5 -0.9 -0.0
2017-Dec-06 04:00N 42°18' W 083°12'0 0.0 240 / 111013.1 -0.1 -0.0
2017-Dec-06 03:00N 42°18' W 083°12'0 0.0 090 / 101012.5 0.5 -0.0
2017-Dec-06 02:00N 42°18' W 083°12'0 0.0 240 / 101012.5 0.7 -0.0
2017-Dec-06 01:00N 42°18' W 083°12'0 0.0 270 / 181012.1 0.9 -0.0
2017-Dec-06 00:00N 42°18' W 083°12'0 0.0 240 / 161011.5 0.6 -0.0
2017-Dec-05 23:00N 42°18' W 083°12'0 0.0 290 / 131010.8 0.6 -0.0
2017-Dec-05 22:00N 42°18' W 083°12'0 0.0 250 / 161010.1 1.7 -0.0
2017-Dec-05 21:00N 42°18' W 083°12'0 0.0 260 / 171008.4 3.2 -0.0
2017-Dec-05 20:00N 42°18' W 083°12'0 0.0 250 / 121007.4 4.5 -0.0
2017-Dec-05 19:00N 42°18' W 083°12'0 0.0 220 / 81007.4 5.1 -0.0
2017-Dec-05 18:00N 42°18' W 083°12'0 0.0 220 / 141008.1 4.9 -0.0
2017-Dec-05 17:00N 42°18' W 083°12'0 0.0 210 / 91008.1 5.6 -0.0
2017-Dec-05 16:00N 42°18' W 083°12'0 0.0 220 / 121009.1 5.1 -0.0
2017-Dec-05 15:00N 42°18' W 083°12'0 0.0 240 / 111009.1 4.8 -0.0
2017-Dec-05 14:00N 42°18' W 083°12'0 0.0 210 / 181008.1 5.6 -0.0
2017-Dec-05 13:00N 42°18' W 083°12'0 0.0 240 / 91007.7 7.2 -0.0
2017-Dec-05 12:00N 42°18' W 083°12'0 0.0 250 / 201006.0 10.2 -0.0
2017-Dec-05 11:00N 42°18' W 083°12'0 0.0 220 / 131004.3 14.1 -0.0
2017-Dec-05 10:00N 42°18' W 083°12'0 0.0 170 / 141004.0 14.2 -0.0
2017-Dec-05 09:00N 42°18' W 083°12'0 0.0 190 / 131004.0 13.1 -0.0
2017-Dec-05 08:00N 42°18' W 083°12'0 0.0 160 / 111005.4 13.4 -0.0
2017-Dec-05 07:00N 42°18' W 083°12'0 0.0 170 / 121005.7 13.6 -0.0
2017-Dec-05 06:00N 42°18' W 083°12'0 0.0 180 / 111006.0 13.7 -0.0
2017-Dec-05 05:00N 42°18' W 083°12'0 0.0 150 / 121006.4 13.1 -0.0
2017-Dec-05 04:00N 42°18' W 083°12'0 0.0 140 / 121007.7 12.6 -0.0
2017-Dec-05 03:00N 42°18' W 083°12'0 0.0 150 / 161008.4 12.2 -0.0
2017-Dec-05 02:00N 42°18' W 083°12'0 0.0 140 / 141009.4 11.6 -0.0
2017-Dec-05 01:00N 42°18' W 083°12'4 4.4 160 / 181009.8 10.9 -0.0
2017-Dec-05 00:00N 42°18' W 083°06'0 0.0 170 / 121010.8 10.4 -0.0
2017-Dec-04 23:00N 42°18' W 083°06'1110.7 170 / 181011.5 11.6 -0.0
2017-Dec-04 22:00N 42°24' W 082°54'1110.7 170 / 211011.5 11.3 -0.0
2017-Dec-04 21:00N 42°30' W 082°42'7 7.5 160 / 221012.5 9.0 -0.0
2017-Dec-04 20:00N 42°36' W 082°36'7 7.4 160 / 161013.7 9.6 -0.0
2017-Dec-04 19:00N 42°42' W 082°30'1212.0 170 / 211014.7 9.5 -0.0
2017-Dec-04 18:00N 42°54' W 082°30'7 7.4 170 / 211015.0 9.4 -0.0
2017-Dec-04 17:00N 43°00' W 082°24'1212.0 180 / 301016.0 9.3 -0.0
2017-Dec-04 16:00N 43°12' W 082°24'1212.0 160 / 251017.7 7.9 -0.0
2017-Dec-04 15:00N 43°24' W 082°24'1212.0 160 / 241019.1 6.5 -0.0
2017-Dec-04 14:00N 43°36' W 082°24'1312.8 160 / 231019.4 6.8 -0.0
2017-Dec-04 13:00N 43°48' W 082°30'1212.0 150 / 251019.8 6.5 -0.0
2017-Dec-04 12:00N 44°00' W 082°30'1312.8 150 / 231019.8 6.5 -0.0
2017-Dec-04 11:00N 44°12' W 082°36'3812.7 160 / 221020.4 6.5 -0.0
2017-Dec-04 08:00N 44°48' W 082°54'1312.7 160 / 131021.8 6.0 -0.0
2017-Dec-04 07:00N 45°00' W 083°00'1312.7 150 / 141021.5 5.0 -0.0
2017-Dec-04 06:00N 45°12' W 083°06'1514.7 170 / 201021.5 4.4 -0.0
2017-Dec-04 05:00N 45°24' W 083°18'5 9.1 160 / 211021.5 3.8 -0.0
2017-Dec-04 04:27N 45°28' W 083°23'512.3
2017-Dec-04 04:00N 45°32' W 083°27'3194.2
2017-Dec-04 04:00N 45°30' W 083°24'919.0 150 / 221021.1 3.6 -0.0
2017-Dec-04 03:30N 45°37' W 083°33'612.4
2017-Dec-04 03:00N 45°42' W 083°38'1413.8
2017-Dec-04 02:00N 45°54' W 083°48'7 7.3 150 / 161021.1 4.5 -0.0
2017-Dec-04 01:00N 46°00' W 083°54'1514.6 150 / 111021.1 2.7 -0.0
2017-Dec-04 00:00N 46°12' W 084°06'7 7.3 120 / 71021.5 2.4 -0.0
2017-Dec-03 23:00N 46°18' W 084°12'6 6.0 180 / 11021.5 1.7 -0.0
2017-Dec-03 22:00N 46°24' W 084°12'7 7.3 160 / 71021.5 4.7 -0.0
2017-Dec-03 21:00N 46°30' W 084°18'4 4.1 070 / 41020.8 5.6 -0.0
2017-Dec-03 20:00N 46°30' W 084°24'0 0.0 310 / 21020.3 5.3 -0.0
2017-Dec-03 19:00N 46°30' W 084°24'0 0.0 1020.0 4.8 -0.0
2017-Dec-03 18:00N 46°30' W 084°24'4 4.1 280 / 51020.3 4.8 -0.0
2017-Dec-03 17:00N 46°30' W 084°30'1010.2 280 / 21020.7 4.1 -0.0
2017-Dec-03 16:00N 46°36' W 084°42'1010.2 250 / 21021.3 4.0 -0.0
2017-Dec-03 15:00N 46°42' W 084°54'1514.5 050 / 21021.0 3.9 -0.0
2017-Dec-03 14:00N 46°54' W 085°06'1413.7 150 / 41021.0 3.8 -0.0
2017-Dec-03 13:00N 46°48' W 085°24'1212.3 270 / 51020.7 3.5 -0.0
2017-Dec-03 12:00N 46°48' W 085°42'1212.3 270 / 51020.7 3.6 -0.0
2017-Dec-03 11:00N 46°48' W 086°00'1817.5 320 / 41020.0 3.8 -0.0
2017-Dec-03 10:00N 46°42' W 086°24'1212.3 320 / 41019.3 3.9 -0.0
2017-Dec-03 09:00N 46°42' W 086°42'1413.7 310 / 31019.3 3.8 -0.0
2017-Dec-03 08:00N 46°36' W 087°00'1212.4 230 / 71020.0 2.9 -0.0
2017-Dec-03 07:00N 46°36' W 087°18'4 4.1 220 / 91019.6 2.3 -0.0
2017-Dec-03 06:00N 46°36' W 087°24'0 0.0 310 / 11019.3 0.8 -0.0
2017-Dec-03 05:00N 46°36' W 087°24'0 0.0 220 / 11019.0 1.0 -0.0
2017-Dec-03 04:00N 46°36' W 087°24'0 0.0 290 / 11019.0 1.4 -0.0
2017-Dec-03 03:00N 46°36' W 087°24'0 0.0 220 1018.6 2.3 -0.0
2017-Dec-03 02:00N 46°36' W 087°24'0 0.0 310 / 11018.3 2.3 -0.0
2017-Dec-03 01:00N 46°36' W 087°24'0 0.0 310 1018.3 2.9 -0.0
2017-Dec-03 00:00N 46°36' W 087°24'0 0.0 280 / 11017.9 3.3 -0.0
2017-Dec-02 23:00N 46°36' W 087°24'0 0.0 330 / 41017.3 4.4 -0.0
2017-Dec-02 22:00N 46°36' W 087°24'8 8.2 350 / 111016.6 4.5 -0.0
2017-Dec-02 21:00N 46°36' W 087°12'1212.4 350 / 151015.6 4.6 -0.0
2017-Dec-02 20:00N 46°36' W 086°54'1413.7 300 / 111015.6 4.7 -0.0
2017-Dec-02 19:00N 46°42' W 086°36'1212.3 290 / 121015.2 4.9 -0.0
2017-Dec-02 18:00N 46°42' W 086°18'1413.7 270 / 141014.9 5.0 -0.0
2017-Dec-02 17:00N 46°48' W 086°00'1212.3 260 / 161014.9 5.3 -0.0
2017-Dec-02 16:00N 46°48' W 085°42'1616.4 220 / 151015.2 5.4 -0.0
2017-Dec-02 15:00N 46°48' W 085°18'1212.3 190 / 151015.2 4.7 -0.0
2017-Dec-02 14:00N 46°48' W 085°00'1010.2 170 / 151016.3 4.5 -0.0
2017-Dec-02 13:00N 46°42' W 084°48'1514.6 170 / 151016.9 4.8 -0.0
2017-Dec-02 12:00N 46°30' W 084°36'8 8.3 090 / 111017.6 3.0 -0.0
2017-Dec-02 11:00N 46°30' W 084°24'4 4.1 090 / 61017.9 2.6 -0.0
2017-Dec-02 10:00N 46°30' W 084°18'0 0.0 060 / 71018.1 3.1 -0.0
2017-Dec-02 09:00N 46°30' W 084°18'0 0.0 100 / 41018.8 2.9 -0.0
2017-Dec-02 08:00N 46°30' W 084°18'7 7.3 070 / 21019.4 3.5 -0.0
2017-Dec-02 07:00N 46°24' W 084°12'7 7.3 040 / 51019.4 2.9 -0.0
2017-Dec-02 06:00N 46°18' W 084°06'1312.7 140 / 11019.8 3.9 -0.0
2017-Dec-02 05:00N 46°06' W 084°00'7 7.3 150 / 51020.1 4.5 -0.0
2017-Dec-02 04:00N 46°00' W 083°54'1010.3 210 / 61020.1 5.5 -0.0
2017-Dec-02 03:00N 45°54' W 084°06'1312.5 180 / 121020.1 5.8 -0.0
2017-Dec-02 02:00N 45°54' W 084°24'426.4 170 / 91020.1 5.2 -0.0
2017-Dec-02 01:50N 45°51' W 084°28'612.7
2017-Dec-02 01:23N 45°51' W 084°37'512.3
2017-Dec-02 01:00N 45°49' W 084°43'168.9
2017-Dec-02 01:00N 45°48' W 084°42'714.2 160 / 61019.8 5.1 -0.0
2017-Dec-02 00:30N 45°49' W 084°52'612.7
2017-Dec-02 00:00N 45°50' W 085°01'2111.9
2017-Dec-02 00:00N 45°48' W 085°00'612.2 200 / 151019.8 5.7 -0.0
2017-Dec-01 23:30N 45°49' W 085°08'611.1
2017-Dec-01 23:00N 45°43' W 085°11'295.2
2017-Dec-01 23:00N 45°42' W 085°12'510.7 220 / 161020.1 6.4 -0.0
2017-Dec-01 22:30N 45°38' W 085°17'713.3
2017-Dec-01 22:00N 45°33' W 085°23'3208.3
2017-Dec-01 22:00N 45°36' W 085°24'918.8 220 / 191020.1 6.5 -0.0
2017-Dec-01 21:30N 45°27' W 085°28'713.4
2017-Dec-01 21:00N 45°22' W 085°34'2149.1
2017-Dec-01 21:00N 45°24' W 085°36'816.0 220 / 161020.1 6.5 -0.0
2017-Dec-01 20:30N 45°17' W 085°40'713.4
2017-Dec-01 20:00N 45°11' W 085°45'2152.2
2017-Dec-01 20:00N 45°12' W 085°42'1514.7 210 / 201020.8 6.2 -0.0
2017-Dec-01 19:00N 45°00' W 085°54'1414.1 230 / 211021.1 6.4 -0.0
2017-Dec-01 18:00N 44°54' W 086°12'1514.7 210 / 181021.5 6.3 -0.0
2017-Dec-01 17:00N 44°42' W 086°24'1212.0 220 / 151022.1 6.0 -0.0
2017-Dec-01 16:00N 44°30' W 086°24'   210 / 141023.2 5.5 -0.0
Track history (hours):
 
Tides and Currents Weather Stations Pressure Air Temp Water Temp Dewpoint Dewpoint Depression Visibility Wind Speed Wind Dir Waves Ship Positions

Hon James L Oberstar

Owner: THE INTERLAKE STEAMSHIP COMPANY, Middleburg Heights, OH. More information available from US FCC via Universal Licensing System and Coast Guard Vessel Documentation Center.

Last reported at 2017-Dec-11 16:00 UTC. Time now 2017-Dec-14 17:15 UTC.
Position N 44°00' W 082°36'.

Length 240 m; draft 8.2 m.

Type: Cargo ship. MMSI: 366904890.

Wind from 270 at 10 knots

Barometer 1015.4 mb
Air temperature -6.3 ° C
Water temperature -0.0 ° C

Date/timePositionNaut miles runAvg speedWind from/ knotsBaromVisibWave heightAir tempDewpointWater temp
2017-Dec-11 16:00N 44°00' W 082°36'1312.8 270 / 101015.4 -6.3 -0.0
2017-Dec-11 15:00N 43°48' W 082°30'1212.0 260 / 141016.0 -6.7 -0.0
2017-Dec-11 14:00N 43°36' W 082°30'1212.0 270 / 121016.0 -7.5 -0.0
2017-Dec-11 13:00N 43°24' W 082°30'1312.8 290 / 161017.1 -8.1 -0.0
2017-Dec-11 12:00N 43°12' W 082°24'1212.0 310 / 181016.4 -7.7 -0.0
2017-Dec-11 11:00N 43°00' W 082°24'1312.8 300 / 91017.4 -7.6 -0.0
2017-Dec-11 10:00N 42°48' W 082°30'6 6.0 350 / 101017.4 -6.6 -0.0
2017-Dec-11 09:00N 42°42' W 082°30'1312.8 320 / 101016.7 -5.0 -0.0
2017-Dec-11 08:00N 42°30' W 082°36'1110.7 350 / 111016.2 -3.3 -0.0
2017-Dec-11 07:00N 42°24' W 082°48'1110.7 330 / 121015.2 -2.8 -0.0
2017-Dec-11 06:00N 42°18' W 083°00'4 4.4 330 / 91016.2 -2.4 -0.0
2017-Dec-11 05:00N 42°18' W 083°06'4 4.4 310 / 101015.9 -2.1 -0.0
2017-Dec-11 04:00N 42°18' W 083°12'0 0.0 330 / 101015.2 -2.1 -0.0
2017-Dec-11 03:00N 42°18' W 083°12'0 0.0 300 / 81015.2 -2.0 -0.0
2017-Dec-11 02:00N 42°18' W 083°12'0 0.0 250 / 81014.8 -2.1 -0.0
2017-Dec-11 01:00N 42°18' W 083°12'0 0.0 320 / 51014.8 -1.9 -0.0
2017-Dec-11 00:00N 42°18' W 083°12'0 0.0 220 / 61014.5 -2.2 -0.0
2017-Dec-10 23:00N 42°18' W 083°12'0 0.0 200 / 81014.2 -2.7 -0.0
2017-Dec-10 22:00N 42°18' W 083°12'0 0.0 230 / 91013.8 -2.8 -0.0
2017-Dec-10 21:00N 42°18' W 083°12'0 0.0 220 / 81013.1 -3.1 -0.0
2017-Dec-10 20:00N 42°18' W 083°12'0 0.0 240 / 61012.8 -3.5 -0.0
2017-Dec-10 19:00N 42°18' W 083°12'4 4.4 240 / 101013.1 -3.8 -0.0
2017-Dec-10 18:00N 42°18' W 083°06'0 0.0 250 / 121013.5 -3.9 -0.0
2017-Dec-10 17:00N 42°18' W 083°06'1110.7 250 / 211013.8 -4.1 -0.0
2017-Dec-10 16:00N 42°24' W 082°54'1110.7 220 / 211013.8 -3.6 -0.0
2017-Dec-10 15:00N 42°30' W 082°42'7 7.5 240 / 221013.1 -2.7 -0.0
2017-Dec-10 14:00N 42°36' W 082°36'7 7.4 240 / 201013.3 -2.5 -0.0
2017-Dec-10 13:00N 42°42' W 082°30'1212.0 230 / 141013.7 -3.2 -0.0
2017-Dec-10 12:00N 42°54' W 082°30'7 7.4 220 / 111013.3 -4.1 -0.0
2017-Dec-10 11:00N 43°00' W 082°24'1212.0 240 / 131012.7 -4.6 -0.0
2017-Dec-10 10:00N 43°12' W 082°24'1212.0 260 / 201012.7 -4.2 -0.0
2017-Dec-10 09:00N 43°24' W 082°24'1212.0 250 / 181012.0 -4.3 -0.0
2017-Dec-10 08:00N 43°36' W 082°24'1312.8 310 / 171012.0 -3.6 -0.0
2017-Dec-10 07:00N 43°48' W 082°30'1212.0 230 / 221011.6 -3.2 -0.0
2017-Dec-10 06:00N 44°00' W 082°30'1312.8 310 / 191012.0 -3.1 -0.0
2017-Dec-10 05:00N 44°12' W 082°36'1312.7 300 / 211011.6 -3.5 -0.0
2017-Dec-10 04:00N 44°24' W 082°42'2512.7 310 / 251011.6 -3.4 -0.0
2017-Dec-10 02:00N 44°48' W 082°54'1312.7 310 / 211011.3 -3.0 -0.0
2017-Dec-10 01:00N 45°00' W 083°00'1312.7 300 / 181011.3 -3.0 -0.0
2017-Dec-10 00:00N 45°12' W 083°06'1514.7 340 / 181011.3 -2.5 -0.0
2017-Dec-09 23:00N 45°24' W 083°18'415.3 330 / 161011.3 -3.3 -0.0
2017-Dec-09 22:43N 45°27' W 083°23'312.8
2017-Dec-09 22:30N 45°29' W 083°25'612.8
2017-Dec-09 22:00N 45°34' W 083°30'2121.0
2017-Dec-09 22:00N 45°36' W 083°30'510.3 320 / 141011.3 -3.9 -0.0
2017-Dec-09 21:30N 45°39' W 083°36'510.4
2017-Dec-09 21:00N 45°42' W 083°42'1312.7 340 / 161011.0 -4.2 -0.0
2017-Dec-09 20:00N 45°54' W 083°48'1514.6 1010.6 -5.3 -0.0
2017-Dec-09 19:00N 46°06' W 084°00'7 7.3 020 / 41011.0 -6.5 -0.0
2017-Dec-09 18:00N 46°12' W 084°06'7 7.3 350 / 41011.3 -7.6 -0.0
2017-Dec-09 17:00N 46°18' W 084°12'7 7.3 050 / 51011.3 -8.3 -0.0
2017-Dec-09 16:00N 46°24' W 084°18'6 6.0 100 / 91011.3 -9.0 -0.0
2017-Dec-09 15:00N 46°30' W 084°18'4 4.1 050 / 51011.3 -9.8 -0.0
2017-Dec-09 14:00N 46°30' W 084°24'7 7.3 050 / 81010.8 -9.7 -0.0
2017-Dec-09 13:00N 46°24' W 084°30'1514.6 090 / 121010.2 -9.2 -0.0
2017-Dec-09 12:00N 46°36' W 084°42'1514.6 140 / 201009.1 -7.2 -0.0
2017-Dec-09 11:00N 46°48' W 084°54'1010.2 140 / 151009.1 -6.1 -0.0
2017-Dec-09 10:00N 46°54' W 085°06'1413.7 160 / 181008.1 -5.7 -0.0
2017-Dec-09 09:00N 46°48' W 085°24'1616.4 160 / 151008.1 -6.3 -0.0
2017-Dec-09 08:00N 46°48' W 085°48'1212.3 160 / 121008.1 -6.3 -0.0
2017-Dec-09 07:00N 46°48' W 086°06'1413.7 180 / 91007.5 -5.9 -0.0
2017-Dec-09 06:00N 46°42' W 086°24'1212.3 180 / 81007.1 -5.3 -0.0
2017-Dec-09 05:00N 46°42' W 086°42'1413.7 170 / 101007.1 -5.4 -0.0
2017-Dec-09 04:00N 46°36' W 087°00'1212.4 160 / 101007.1 -6.1 -0.0
2017-Dec-09 03:00N 46°36' W 087°18'4 4.1 170 / 141007.5 -6.6 -0.0
2017-Dec-09 02:00N 46°36' W 087°24'0 0.0 020 / 11007.5 -6.1 -0.0
2017-Dec-09 01:00N 46°36' W 087°24'0 0.0 320 / 21007.8 -6.3 -0.0
2017-Dec-09 00:00N 46°36' W 087°24'0 0.0 210 / 11008.1 -6.4 -0.0
2017-Dec-08 23:00N 46°36' W 087°24'0 0.0 240 / 11008.1 -6.3 -0.0
2017-Dec-08 22:00N 46°36' W 087°24'0 0.0 240 / 11008.1 -6.7 -0.0
2017-Dec-08 21:00N 46°36' W 087°24'0 0.0 110 / 11008.1 -6.0 -0.0
2017-Dec-08 20:00N 46°36' W 087°24'0 0.0 300 / 11008.8 -6.5 -0.0
2017-Dec-08 19:00N 46°36' W 087°24'0 0.0 300 / 51008.8 -7.1 -0.0
2017-Dec-08 18:00N 46°36' W 087°24'0 0.0 240 / 51009.1 -6.8 -0.0
2017-Dec-08 17:00N 46°36' W 087°24'0 0.0 240 / 61009.1 -6.9 -0.0
2017-Dec-08 16:00N 46°36' W 087°24'0 0.0 310 / 61009.5 -6.4 -0.0
2017-Dec-08 15:00N 46°36' W 087°24'0 0.0 290 / 41008.8 -6.7 -0.0
2017-Dec-08 14:00N 46°36' W 087°24'0 0.0 270 / 61008.8 -6.4 -0.0
2017-Dec-08 13:00N 46°36' W 087°24'0 0.0 240 / 51008.1 -6.1 -0.0
2017-Dec-08 12:00N 46°36' W 087°24'0 0.0 030 / 51007.8 -6.0 -0.0
2017-Dec-08 11:00N 46°36' W 087°24'0 0.0 230 / 31007.1 -6.0 -0.0
2017-Dec-08 10:00N 46°36' W 087°24'0 0.0 240 / 41007.1 -6.0 -0.0
2017-Dec-08 09:00N 46°36' W 087°24'0 0.0 230 / 51006.8 -6.3 -0.0
2017-Dec-08 08:00N 46°36' W 087°24'4 4.1 240 / 161006.8 -6.2 -0.0
2017-Dec-08 07:00N 46°36' W 087°18'1212.0 270 / 251006.4 -5.4 -0.0
2017-Dec-08 06:00N 46°48' W 087°18'8 8.2 280 / 311006.4 -4.3 -0.0
2017-Dec-08 05:00N 46°48' W 087°06'1212.3 270 / 311006.4 -4.1 -0.0
2017-Dec-08 04:00N 46°48' W 086°48'1212.3 270 / 291006.8 -4.1 -0.0
2017-Dec-08 03:00N 46°48' W 086°30'8 8.2 250 / 271007.5 -3.4 -0.0
2017-Dec-08 02:00N 46°48' W 086°18'1212.3 260 / 301008.1 -3.3 -0.0
2017-Dec-08 01:00N 46°48' W 086°00'8 8.2 230 / 341008.1 -4.7 -0.0
2017-Dec-08 00:00N 46°48' W 085°48'1212.3 250 / 281009.1 -3.6 -0.0
2017-Dec-07 23:00N 46°48' W 085°30'8 8.2 230 / 321008.8 -4.7 -0.0
2017-Dec-07 22:00N 46°48' W 085°18'1212.3 220 / 261009.1 -5.5 -0.0
2017-Dec-07 21:00N 46°48' W 085°00'1514.6 280 / 251009.8 -3.5 -0.0
2017-Dec-07 20:00N 46°36' W 084°48'1010.2 300 / 201010.2 -4.4 -0.0
2017-Dec-07 19:00N 46°30' W 084°36'8 8.3 280 / 291009.8 -4.8 -0.0
2017-Dec-07 18:00N 46°30' W 084°24'0 0.0 300 / 181010.2 -3.7 -0.0
2017-Dec-07 17:00N 46°30' W 084°24'4 4.1 090 / 11012.5 -5.5 -0.0
2017-Dec-07 16:00N 46°30' W 084°18'0 0.0 090 / 11012.3 -6.6 -0.0
2017-Dec-07 15:00N 46°30' W 084°18'0 0.0 010 / 31012.0 -7.7 -0.0
2017-Dec-07 14:00N 46°30' W 084°18'7 7.4 330 / 21012.0 -8.0 -0.0
2017-Dec-07 13:00N 46°23' W 084°14'1261.4
2017-Dec-07 13:00N 46°24' W 084°12'7 7.3 040 / 61011.6 -8.1 -0.0
2017-Dec-07 12:00N 46°18' W 084°06'7 9.7 1011.3 -7.1 -0.0
2017-Dec-07 11:14N 46°11' W 084°05'1 6.3
2017-Dec-07 11:00N 46°12' W 084°06'47628.5 350 / 131010.6 -6.6 -0.0
2017-Dec-07 10:59N 46°09' W 084°02'610.6
2017-Dec-07 10:26N 46°03' W 083°58'510.4
2017-Dec-07 10:00N 46°00' W 083°54'111.1 300 / 181010.3 -4.6 -0.0
2017-Dec-07 09:52N 45°59' W 083°53'412.0
2017-Dec-07 09:30N 45°55' W 083°56'713.1
2017-Dec-07 09:00N 45°51' W 084°04'3195.7
2017-Dec-07 09:00N 45°54' W 084°06'817.3 300 / 191010.6 -3.0 -0.0
2017-Dec-07 08:30N 45°47' W 084°00'612.2
2017-Dec-07 08:00N 45°42' W 083°54'019.2
2017-Dec-07 08:00N 45°42' W 083°54'612.0 310 / 231009.9 -2.4 -0.0
2017-Dec-07 07:30N 45°38' W 083°48'611.7
2017-Dec-07 07:00N 45°34' W 083°42'2151.3
2017-Dec-07 07:00N 45°36' W 083°42'815.6 260 / 311008.6 -2.4 -0.0
2017-Dec-07 06:30N 45°30' W 083°36'612.3
2017-Dec-07 06:00N 45°25' W 083°30'176.2
2017-Dec-07 06:00N 45°24' W 083°30'510.7 250 / 281008.9 -3.6 -0.0
2017-Dec-07 05:31N 45°21' W 083°24'510.0
2017-Dec-07 05:00N 45°18' W 083°18'1514.7 250 / 251009.9 -4.1 -0.0
2017-Dec-07 04:00N 45°06' W 083°06'1212.0 270 / 301009.6 -3.6 -0.0
2017-Dec-07 03:00N 44°54' W 083°06'1212.0 270 / 241010.3 -3.3 -0.0
2017-Dec-07 02:00N 44°42' W 083°06'1312.7 290 / 201010.6 -3.2 -0.0
2017-Dec-07 01:00N 44°30' W 083°12'1212.0 260 / 221011.0 -2.8 -0.0
2017-Dec-07 00:00N 44°18' W 083°12'1414.2 250 / 291009.9 -2.8 -0.0
2017-Dec-06 23:00N 44°12' W 082°54'1010.5 260 / 361009.3 -2.2 -0.0
2017-Dec-06 22:00N 44°06' W 082°42'7 7.4 240 / 341008.3 -1.2 -0.0
2017-Dec-06 21:00N 44°00' W 082°36'1312.8 270 / 271007.9 -0.8 -0.0
2017-Dec-06 20:00N 43°48' W 082°30'1818.0 270 / 211007.9 0.8 -0.0
2017-Dec-06 19:00N 43°30' W 082°30'1312.8 260 / 291007.6 1.9 -0.0
2017-Dec-06 18:00N 43°18' W 082°24'1212.0 260 / 291007.9 1.6 -0.0
2017-Dec-06 17:00N 43°06' W 082°24'6 6.0 250 / 221009.9 1.3 -0.0
2017-Dec-06 16:00N 43°00' W 082°24'1312.8 240 / 221011.3 0.7 -0.0
2017-Dec-06 15:00N 42°48' W 082°30'1212.0 220 / 171011.6 -0.6 -0.0
2017-Dec-06 14:00N 42°36' W 082°30'7 7.5 220 / 191012.3 -0.8 -0.0
2017-Dec-06 13:00N 42°30' W 082°36'1110.7 210 / 291012.5 -0.6 -0.0
2017-Dec-06 12:00N 42°24' W 082°48'1110.7 220 / 281012.5 -1.3 -0.0
2017-Dec-06 11:00N 42°18' W 083°00'4 4.4 190 / 121012.8 -2.3 -0.0
2017-Dec-06 10:00N 42°18' W 083°06'4 4.4 240 / 111013.1 -2.7 -0.0
2017-Dec-06 09:00N 42°18' W 083°12'0 0.0 200 / 81013.1 -1.4 -0.0
2017-Dec-06 08:00N 42°18' W 083°12'0 0.0 220 / 81013.8 -1.8 -0.0
2017-Dec-06 07:00N 42°18' W 083°12'0 0.0 190 / 81013.5 -1.5 -0.0
2017-Dec-06 06:00N 42°18' W 083°12'0 0.0 230 / 91013.5 -1.3 -0.0
2017-Dec-06 05:00N 42°18' W 083°12'0 0.0 240 / 81013.5 -0.9 -0.0
2017-Dec-06 04:00N 42°18' W 083°12'0 0.0 240 / 111013.1 -0.1 -0.0
2017-Dec-06 03:00N 42°18' W 083°12'0 0.0 090 / 101012.5 0.5 -0.0
2017-Dec-06 02:00N 42°18' W 083°12'0 0.0 240 / 101012.5 0.7 -0.0
2017-Dec-06 01:00N 42°18' W 083°12'0 0.0 270 / 181012.1 0.9 -0.0
2017-Dec-06 00:00N 42°18' W 083°12'0 0.0 240 / 161011.5 0.6 -0.0
2017-Dec-05 23:00N 42°18' W 083°12'0 0.0 290 / 131010.8 0.6 -0.0
2017-Dec-05 22:00N 42°18' W 083°12'0 0.0 250 / 161010.1 1.7 -0.0
2017-Dec-05 21:00N 42°18' W 083°12'0 0.0 260 / 171008.4 3.2 -0.0
2017-Dec-05 20:00N 42°18' W 083°12'0 0.0 250 / 121007.4 4.5 -0.0
2017-Dec-05 19:00N 42°18' W 083°12'0 0.0 220 / 81007.4 5.1 -0.0
2017-Dec-05 18:00N 42°18' W 083°12'0 0.0 220 / 141008.1 4.9 -0.0
2017-Dec-05 17:00N 42°18' W 083°12'0 0.0 210 / 91008.1 5.6 -0.0
2017-Dec-05 16:00N 42°18' W 083°12'0 0.0 220 / 121009.1 5.1 -0.0
2017-Dec-05 15:00N 42°18' W 083°12'0 0.0 240 / 111009.1 4.8 -0.0
2017-Dec-05 14:00N 42°18' W 083°12'0 0.0 210 / 181008.1 5.6 -0.0
2017-Dec-05 13:00N 42°18' W 083°12'0 0.0 240 / 91007.7 7.2 -0.0
2017-Dec-05 12:00N 42°18' W 083°12'0 0.0 250 / 201006.0 10.2 -0.0
2017-Dec-05 11:00N 42°18' W 083°12'0 0.0 220 / 131004.3 14.1 -0.0
2017-Dec-05 10:00N 42°18' W 083°12'0 0.0 170 / 141004.0 14.2 -0.0
2017-Dec-05 09:00N 42°18' W 083°12'0 0.0 190 / 131004.0 13.1 -0.0
2017-Dec-05 08:00N 42°18' W 083°12'0 0.0 160 / 111005.4 13.4 -0.0
2017-Dec-05 07:00N 42°18' W 083°12'0 0.0 170 / 121005.7 13.6 -0.0
2017-Dec-05 06:00N 42°18' W 083°12'0 0.0 180 / 111006.0 13.7 -0.0
2017-Dec-05 05:00N 42°18' W 083°12'0 0.0 150 / 121006.4 13.1 -0.0
2017-Dec-05 04:00N 42°18' W 083°12'0 0.0 140 / 121007.7 12.6 -0.0
2017-Dec-05 03:00N 42°18' W 083°12'0 0.0 150 / 161008.4 12.2 -0.0
2017-Dec-05 02:00N 42°18' W 083°12'0 0.0 140 / 141009.4 11.6 -0.0
2017-Dec-05 01:00N 42°18' W 083°12'4 4.4 160 / 181009.8 10.9 -0.0
2017-Dec-05 00:00N 42°18' W 083°06'0 0.0 170 / 121010.8 10.4 -0.0
2017-Dec-04 23:00N 42°18' W 083°06'1110.7 170 / 181011.5 11.6 -0.0
2017-Dec-04 22:00N 42°24' W 082°54'1110.7 170 / 211011.5 11.3 -0.0
2017-Dec-04 21:00N 42°30' W 082°42'7 7.5 160 / 221012.5 9.0 -0.0
2017-Dec-04 20:00N 42°36' W 082°36'7 7.4 160 / 161013.7 9.6 -0.0
2017-Dec-04 19:00N 42°42' W 082°30'1212.0 170 / 211014.7 9.5 -0.0
2017-Dec-04 18:00N 42°54' W 082°30'7 7.4 170 / 211015.0 9.4 -0.0
2017-Dec-04 17:00N 43°00' W 082°24'1212.0 180 / 301016.0 9.3 -0.0
2017-Dec-04 16:00N 43°12' W 082°24'1212.0 160 / 251017.7 7.9 -0.0
2017-Dec-04 15:00N 43°24' W 082°24'1212.0 160 / 241019.1 6.5 -0.0
2017-Dec-04 14:00N 43°36' W 082°24'1312.8 160 / 231019.4 6.8 -0.0
2017-Dec-04 13:00N 43°48' W 082°30'1212.0 150 / 251019.8 6.5 -0.0
2017-Dec-04 12:00N 44°00' W 082°30'1312.8 150 / 231019.8 6.5 -0.0
2017-Dec-04 11:00N 44°12' W 082°36'3812.7 160 / 221020.4 6.5 -0.0
2017-Dec-04 08:00N 44°48' W 082°54'1312.7 160 / 131021.8 6.0 -0.0
2017-Dec-04 07:00N 45°00' W 083°00'1312.7 150 / 141021.5 5.0 -0.0
2017-Dec-04 06:00N 45°12' W 083°06'1514.7 170 / 201021.5 4.4 -0.0
2017-Dec-04 05:00N 45°24' W 083°18'5 9.1 160 / 211021.5 3.8 -0.0
2017-Dec-04 04:27N 45°28' W 083°23'512.3
2017-Dec-04 04:00N 45°32' W 083°27'3194.2
2017-Dec-04 04:00N 45°30' W 083°24'919.0 150 / 221021.1 3.6 -0.0
2017-Dec-04 03:30N 45°37' W 083°33'612.4
2017-Dec-04 03:00N 45°42' W 083°38'1413.8
2017-Dec-04 02:00N 45°54' W 083°48'7 7.3 150 / 161021.1 4.5 -0.0
2017-Dec-04 01:00N 46°00' W 083°54'1514.6 150 / 111021.1 2.7 -0.0
2017-Dec-04 00:00N 46°12' W 084°06'7 7.3 120 / 71021.5 2.4 -0.0
2017-Dec-03 23:00N 46°18' W 084°12'6 6.0 180 / 11021.5 1.7 -0.0
2017-Dec-03 22:00N 46°24' W 084°12'7 7.3 160 / 71021.5 4.7 -0.0
2017-Dec-03 21:00N 46°30' W 084°18'4 4.1 070 / 41020.8 5.6 -0.0
2017-Dec-03 20:00N 46°30' W 084°24'0 0.0 310 / 21020.3 5.3 -0.0
2017-Dec-03 19:00N 46°30' W 084°24'0 0.0 1020.0 4.8 -0.0
2017-Dec-03 18:00N 46°30' W 084°24'4 4.1 280 / 51020.3 4.8 -0.0
2017-Dec-03 17:00N 46°30' W 084°30'1010.2 280 / 21020.7 4.1 -0.0
2017-Dec-03 16:00N 46°36' W 084°42'1010.2 250 / 21021.3 4.0 -0.0
2017-Dec-03 15:00N 46°42' W 084°54'1514.5 050 / 21021.0 3.9 -0.0
2017-Dec-03 14:00N 46°54' W 085°06'1413.7 150 / 41021.0 3.8 -0.0
2017-Dec-03 13:00N 46°48' W 085°24'1212.3 270 / 51020.7 3.5 -0.0
2017-Dec-03 12:00N 46°48' W 085°42'1212.3 270 / 51020.7 3.6 -0.0
2017-Dec-03 11:00N 46°48' W 086°00'1817.5 320 / 41020.0 3.8 -0.0
2017-Dec-03 10:00N 46°42' W 086°24'1212.3 320 / 41019.3 3.9 -0.0
2017-Dec-03 09:00N 46°42' W 086°42'1413.7 310 / 31019.3 3.8 -0.0
2017-Dec-03 08:00N 46°36' W 087°00'1212.4 230 / 71020.0 2.9 -0.0
2017-Dec-03 07:00N 46°36' W 087°18'4 4.1 220 / 91019.6 2.3 -0.0
2017-Dec-03 06:00N 46°36' W 087°24'0 0.0 310 / 11019.3 0.8 -0.0
2017-Dec-03 05:00N 46°36' W 087°24'0 0.0 220 / 11019.0 1.0 -0.0
2017-Dec-03 04:00N 46°36' W 087°24'0 0.0 290 / 11019.0 1.4 -0.0
2017-Dec-03 03:00N 46°36' W 087°24'0 0.0 220 1018.6 2.3 -0.0
2017-Dec-03 02:00N 46°36' W 087°24'0 0.0 310 / 11018.3 2.3 -0.0
2017-Dec-03 01:00N 46°36' W 087°24'0 0.0 310 1018.3 2.9 -0.0
2017-Dec-03 00:00N 46°36' W 087°24'0 0.0 280 / 11017.9 3.3 -0.0
2017-Dec-02 23:00N 46°36' W 087°24'0 0.0 330 / 41017.3 4.4 -0.0
2017-Dec-02 22:00N 46°36' W 087°24'8 8.2 350 / 111016.6 4.5 -0.0
2017-Dec-02 21:00N 46°36' W 087°12'1212.4 350 / 151015.6 4.6 -0.0
2017-Dec-02 20:00N 46°36' W 086°54'1413.7 300 / 111015.6 4.7 -0.0
2017-Dec-02 19:00N 46°42' W 086°36'1212.3 290 / 121015.2 4.9 -0.0
2017-Dec-02 18:00N 46°42' W 086°18'1413.7 270 / 141014.9 5.0 -0.0
2017-Dec-02 17:00N 46°48' W 086°00'1212.3 260 / 161014.9 5.3 -0.0
2017-Dec-02 16:00N 46°48' W 085°42'1616.4 220 / 151015.2 5.4 -0.0
2017-Dec-02 15:00N 46°48' W 085°18'1212.3 190 / 151015.2 4.7 -0.0
2017-Dec-02 14:00N 46°48' W 085°00'1010.2 170 / 151016.3 4.5 -0.0
2017-Dec-02 13:00N 46°42' W 084°48'1514.6 170 / 151016.9 4.8 -0.0
2017-Dec-02 12:00N 46°30' W 084°36'8 8.3 090 / 111017.6 3.0 -0.0
2017-Dec-02 11:00N 46°30' W 084°24'4 4.1 090 / 61017.9 2.6 -0.0
2017-Dec-02 10:00N 46°30' W 084°18'0 0.0 060 / 71018.1 3.1 -0.0
2017-Dec-02 09:00N 46°30' W 084°18'0 0.0 100 / 41018.8 2.9 -0.0
2017-Dec-02 08:00N 46°30' W 084°18'7 7.3 070 / 21019.4 3.5 -0.0
2017-Dec-02 07:00N 46°24' W 084°12'7 7.3 040 / 51019.4 2.9 -0.0
2017-Dec-02 06:00N 46°18' W 084°06'1312.7 140 / 11019.8 3.9 -0.0
2017-Dec-02 05:00N 46°06' W 084°00'7 7.3 150 / 51020.1 4.5 -0.0
2017-Dec-02 04:00N 46°00' W 083°54'1010.3 210 / 61020.1 5.5 -0.0
2017-Dec-02 03:00N 45°54' W 084°06'1312.5 180 / 121020.1 5.8 -0.0
2017-Dec-02 02:00N 45°54' W 084°24'426.4 170 / 91020.1 5.2 -0.0
2017-Dec-02 01:50N 45°51' W 084°28'612.7
2017-Dec-02 01:23N 45°51' W 084°37'512.3
2017-Dec-02 01:00N 45°49' W 084°43'168.9
2017-Dec-02 01:00N 45°48' W 084°42'714.2 160 / 61019.8 5.1 -0.0
2017-Dec-02 00:30N 45°49' W 084°52'612.7
2017-Dec-02 00:00N 45°50' W 085°01'2111.9
2017-Dec-02 00:00N 45°48' W 085°00'612.2 200 / 151019.8 5.7 -0.0
2017-Dec-01 23:30N 45°49' W 085°08'611.1
2017-Dec-01 23:00N 45°43' W 085°11'295.2
2017-Dec-01 23:00N 45°42' W 085°12'510.7 220 / 161020.1 6.4 -0.0
2017-Dec-01 22:30N 45°38' W 085°17'713.3
2017-Dec-01 22:00N 45°33' W 085°23'3208.3
2017-Dec-01 22:00N 45°36' W 085°24'918.8 220 / 191020.1 6.5 -0.0
2017-Dec-01 21:30N 45°27' W 085°28'713.4
2017-Dec-01 21:00N 45°22' W 085°34'2149.1
2017-Dec-01 21:00N 45°24' W 085°36'816.0 220 / 161020.1 6.5 -0.0
2017-Dec-01 20:30N 45°17' W 085°40'713.4
2017-Dec-01 20:00N 45°11' W 085°45'2152.2
2017-Dec-01 20:00N 45°12' W 085°42'1514.7 210 / 201020.8 6.2 -0.0
2017-Dec-01 19:00N 45°00' W 085°54'1414.1 230 / 211021.1 6.4 -0.0
2017-Dec-01 18:00N 44°54' W 086°12'1514.7 210 / 181021.5 6.3 -0.0
2017-Dec-01 17:00N 44°42' W 086°24'1212.0 220 / 151022.1 6.0 -0.0
2017-Dec-01 16:00N 44°30' W 086°24'   210 / 141023.2 5.5 -0.0

Dump ship's entire track history